sensor_id;sensor_type;location;lat;lon;timestamp;pressure;altitude;pressure_sealevel;temperature;humidity
53754;BME280;39667;52.274;20.964;2023-03-14T16:54:39;98380.88;;;10.94;71.07
53754;BME280;39667;52.274;20.964;2023-03-14T17:04:25;98382.44;;;10.65;71.40
53754;BME280;39667;52.274;20.964;2023-03-14T17:07:57;98371.90;;;10.60;71.82
53754;BME280;39667;52.274;20.964;2023-03-14T17:10:50;98369.92;;;10.61;71.87
53754;BME280;39667;52.274;20.964;2023-03-14T17:13:41;98371.09;;;10.54;71.75
53754;BME280;39667;52.274;20.964;2023-03-14T17:17:21;98374.40;;;10.50;71.86
53754;BME280;39667;52.274;20.964;2023-03-14T17:20:15;98388.05;;;10.48;71.88
53754;BME280;39667;52.274;20.964;2023-03-14T17:23:26;98384.80;;;10.45;71.91
53754;BME280;39667;52.274;20.964;2023-03-14T17:37:24;98387.80;;;10.40;71.99
53754;BME280;39667;52.274;20.964;2023-03-14T17:44:51;98386.27;;;10.39;71.92
53754;BME280;39667;52.274;20.964;2023-03-14T17:48:57;98389.63;;;10.38;71.79
53754;BME280;39667;52.274;20.964;2023-03-14T17:52:55;98392.48;;;10.37;71.87
53754;BME280;39667;52.274;20.964;2023-03-14T18:19:19;98394.34;;;10.39;71.22
53754;BME280;39667;52.274;20.964;2023-03-14T18:29:48;98400.73;;;10.42;70.75
53754;BME280;39667;52.274;20.964;2023-03-14T18:42:51;98416.01;;;10.48;70.16
53754;BME280;39667;52.274;20.964;2023-03-14T18:52:34;98413.74;;;10.48;69.83
53754;BME280;39667;52.274;20.964;2023-03-14T19:30:24;98438.63;;;10.04;70.09
53754;BME280;39667;52.274;20.964;2023-03-14T19:37:30;98433.72;;;9.99;70.29
53754;BME280;39667;52.274;20.964;2023-03-14T19:40:45;98428.44;;;9.95;70.28
53754;BME280;39667;52.274;20.964;2023-03-14T19:45:16;98435.38;;;9.88;70.55
53754;BME280;39667;52.274;20.964;2023-03-14T19:49:10;98430.86;;;9.86;70.60
53754;BME280;39667;52.274;20.964;2023-03-14T22:11:59;98469.00;;;9.86;71.36
53754;BME280;39667;52.274;20.964;2023-03-14T22:15:26;98480.58;;;9.77;71.03
53754;BME280;39667;52.274;20.964;2023-03-14T22:18:02;98481.65;;;9.68;71.21
53754;BME280;39667;52.274;20.964;2023-03-14T22:20:46;98482.60;;;9.60;71.45
53754;BME280;39667;52.274;20.964;2023-03-14T22:29:50;98486.32;;;9.50;71.55
53754;BME280;39667;52.274;20.964;2023-03-14T22:32:35;98481.73;;;9.40;71.65
53754;BME280;39667;52.274;20.964;2023-03-14T22:35:35;98476.27;;;9.35;71.90
53754;BME280;39667;52.274;20.964;2023-03-14T22:38:18;98478.46;;;9.33;71.95
53754;BME280;39667;52.274;20.964;2023-03-14T22:41:04;98482.95;;;9.30;72.03
53754;BME280;39667;52.274;20.964;2023-03-14T22:43:36;98480.30;;;9.31;72.06
53754;BME280;39667;52.274;20.964;2023-03-14T22:46:15;98484.96;;;9.33;72.04
53754;BME280;39667;52.274;20.964;2023-03-14T22:48:46;98486.13;;;9.35;72.08
53754;BME280;39667;52.274;20.964;2023-03-14T22:51:28;98487.64;;;9.36;71.98
53754;BME280;39667;52.274;20.964;2023-03-14T22:54:00;98488.11;;;9.38;72.03
53754;BME280;39667;52.274;20.964;2023-03-14T22:56:58;98487.36;;;9.39;71.95
53754;BME280;39667;52.274;20.964;2023-03-14T22:59:32;98492.06;;;9.41;72.00
53754;BME280;39667;52.274;20.964;2023-03-14T23:02:24;98495.59;;;9.40;71.92
53754;BME280;39667;52.274;20.964;2023-03-14T23:05:05;98503.89;;;9.39;71.93
53754;BME280;39667;52.274;20.964;2023-03-14T23:07:47;98506.83;;;9.41;72.16
53754;BME280;39667;52.274;20.964;2023-03-14T23:10:16;98508.65;;;9.39;72.58
53754;BME280;39667;52.274;20.964;2023-03-14T23:12:46;98511.87;;;9.37;72.82
53754;BME280;39667;52.274;20.964;2023-03-14T23:15:17;98511.91;;;9.36;72.96
53754;BME280;39667;52.274;20.964;2023-03-14T23:18:07;98514.23;;;9.34;73.08
53754;BME280;39667;52.274;20.964;2023-03-14T23:24:00;98521.99;;;9.34;73.62
53754;BME280;39667;52.274;20.964;2023-03-14T23:27:04;98524.55;;;9.31;73.82
53754;BME280;39667;52.274;20.964;2023-03-14T23:30:45;98529.25;;;9.27;73.90
53754;BME280;39667;52.274;20.964;2023-03-14T23:47:22;98538.91;;;9.83;72.59
53754;BME280;39667;52.274;20.964;2023-03-14T23:50:04;98541.86;;;9.85;72.36
53754;BME280;39667;52.274;20.964;2023-03-14T23:53:22;98543.55;;;9.77;72.50
53754;BME280;39667;52.274;20.964;2023-03-14T23:55:53;98546.95;;;9.70;72.56
53754;BME280;39667;52.274;20.964;2023-03-14T23:58:22;98549.99;;;9.63;72.62
